sensor_id;sensor_type;location;lat;lon;timestamp;P1;durP1;ratioP1;P2;durP2;ratioP2
77152;SDS011;66124;51.146;17.072;2023-12-14T00:10:33;43.90;;;20.50;;
77152;SDS011;66124;51.146;17.072;2023-12-14T00:14:29;41.40;;;19.00;;
77152;SDS011;66124;51.146;17.072;2023-12-14T00:16:59;35.00;;;16.40;;
77152;SDS011;66124;51.146;17.072;2023-12-14T00:24:35;41.10;;;18.60;;
77152;SDS011;66124;51.146;17.072;2023-12-14T00:27:04;40.50;;;18.40;;
77152;SDS011;66124;51.146;17.072;2023-12-14T00:29:34;31.90;;;15.70;;
77152;SDS011;66124;51.146;17.072;2023-12-14T00:34:49;40.10;;;19.30;;
77152;SDS011;66124;51.146;17.072;2023-12-14T00:37:18;36.70;;;16.40;;
77152;SDS011;66124;51.146;17.072;2023-12-14T00:42:33;40.50;;;19.70;;
77152;SDS011;66124;51.146;17.072;2023-12-14T00:47:38;35.60;;;16.40;;
77152;SDS011;66124;51.146;17.072;2023-12-14T00:56:00;38.30;;;17.20;;
77152;SDS011;66124;51.146;17.072;2023-12-14T00:58:31;42.60;;;17.90;;
77152;SDS011;66124;51.146;17.072;2023-12-14T01:01:00;38.50;;;16.00;;
77152;SDS011;66124;51.146;17.072;2023-12-14T01:03:30;42.70;;;19.10;;
77152;SDS011;66124;51.146;17.072;2023-12-14T01:05:59;36.20;;;15.90;;
77152;SDS011;66124;51.146;17.072;2023-12-14T01:08:29;46.70;;;19.20;;
77152;SDS011;66124;51.146;17.072;2023-12-14T01:10:58;43.60;;;18.80;;
77152;SDS011;66124;51.146;17.072;2023-12-14T01:13:28;45.60;;;18.60;;
77152;SDS011;66124;51.146;17.072;2023-12-14T01:15:57;39.80;;;18.30;;
77152;SDS011;66124;51.146;17.072;2023-12-14T01:18:27;41.80;;;18.90;;
77152;SDS011;66124;51.146;17.072;2023-12-14T01:20:56;43.10;;;18.80;;
77152;SDS011;66124;51.146;17.072;2023-12-14T01:23:25;42.80;;;17.80;;
77152;SDS011;66124;51.146;17.072;2023-12-14T01:25:55;44.90;;;18.20;;
77152;SDS011;66124;51.146;17.072;2023-12-14T01:28:24;37.30;;;16.60;;
77152;SDS011;66124;51.146;17.072;2023-12-14T01:30:54;43.30;;;18.20;;
77152;SDS011;66124;51.146;17.072;2023-12-14T01:33:23;43.50;;;20.00;;
77152;SDS011;66124;51.146;17.072;2023-12-14T01:35:52;47.00;;;20.30;;
77152;SDS011;66124;51.146;17.072;2023-12-14T01:38:22;45.80;;;20.50;;
77152;SDS011;66124;51.146;17.072;2023-12-14T01:40:51;44.20;;;19.00;;
77152;SDS011;66124;51.146;17.072;2023-12-14T01:43:21;41.90;;;18.70;;
77152;SDS011;66124;51.146;17.072;2023-12-14T01:45:50;44.10;;;18.70;;
77152;SDS011;66124;51.146;17.072;2023-12-14T01:48:20;46.50;;;18.90;;
77152;SDS011;66124;51.146;17.072;2023-12-14T01:50:49;43.10;;;18.20;;
77152;SDS011;66124;51.146;17.072;2023-12-14T01:53:18;42.60;;;18.10;;
77152;SDS011;66124;51.146;17.072;2023-12-14T01:55:48;42.50;;;18.30;;
77152;SDS011;66124;51.146;17.072;2023-12-14T01:58:17;46.40;;;19.20;;
77152;SDS011;66124;51.146;17.072;2023-12-14T02:00:49;33.90;;;14.80;;
77152;SDS011;66124;51.146;17.072;2023-12-14T02:03:23;34.20;;;15.60;;
77152;SDS011;66124;51.146;17.072;2023-12-14T02:05:53;35.10;;;17.70;;
77152;SDS011;66124;51.146;17.072;2023-12-14T03:03:07;40.10;;;18.30;;
77152;SDS011;66124;51.146;17.072;2023-12-14T03:20:58;42.50;;;18.60;;
77152;SDS011;66124;51.146;17.072;2023-12-14T03:28:36;44.30;;;19.10;;
77152;SDS011;66124;51.146;17.072;2023-12-14T03:37:33;37.00;;;16.60;;
77152;SDS011;66124;51.146;17.072;2023-12-14T03:40:02;33.70;;;14.00;;
77152;SDS011;66124;51.146;17.072;2023-12-14T03:42:33;33.60;;;13.30;;
77152;SDS011;66124;51.146;17.072;2023-12-14T03:45:03;27.30;;;11.90;;
77152;SDS011;66124;51.146;17.072;2023-12-14T03:47:34;28.70;;;13.10;;
77152;SDS011;66124;51.146;17.072;2023-12-14T03:50:03;31.30;;;13.30;;
77152;SDS011;66124;51.146;17.072;2023-12-14T03:52:34;34.20;;;13.40;;
77152;SDS011;66124;51.146;17.072;2023-12-14T03:55:05;30.60;;;13.10;;
77152;SDS011;66124;51.146;17.072;2023-12-14T03:57:35;32.00;;;13.40;;
77152;SDS011;66124;51.146;17.072;2023-12-14T04:00:05;25.20;;;11.30;;
77152;SDS011;66124;51.146;17.072;2023-12-14T04:02:37;23.60;;;10.70;;
77152;SDS011;66124;51.146;17.072;2023-12-14T04:05:07;25.10;;;11.20;;
77152;SDS011;66124;51.146;17.072;2023-12-14T04:07:37;26.50;;;11.00;;
77152;SDS011;66124;51.146;17.072;2023-12-14T04:10:08;28.10;;;12.80;;
77152;SDS011;66124;51.146;17.072;2023-12-14T04:12:38;31.30;;;13.10;;
77152;SDS011;66124;51.146;17.072;2023-12-14T04:15:09;31.10;;;12.70;;
77152;SDS011;66124;51.146;17.072;2023-12-14T04:17:38;27.40;;;11.20;;
77152;SDS011;66124;51.146;17.072;2023-12-14T04:20:09;27.10;;;11.20;;
77152;SDS011;66124;51.146;17.072;2023-12-14T04:22:40;24.40;;;10.70;;
77152;SDS011;66124;51.146;17.072;2023-12-14T04:25:10;28.30;;;12.00;;
77152;SDS011;66124;51.146;17.072;2023-12-14T04:27:39;27.40;;;12.20;;
77152;SDS011;66124;51.146;17.072;2023-12-14T04:30:09;27.40;;;12.50;;
77152;SDS011;66124;51.146;17.072;2023-12-14T04:32:40;26.60;;;12.40;;
77152;SDS011;66124;51.146;17.072;2023-12-14T04:35:09;24.60;;;11.10;;
77152;SDS011;66124;51.146;17.072;2023-12-14T04:37:39;22.70;;;11.40;;
77152;SDS011;66124;51.146;17.072;2023-12-14T04:40:09;27.80;;;11.60;;
77152;SDS011;66124;51.146;17.072;2023-12-14T04:42:39;29.40;;;12.70;;
77152;SDS011;66124;51.146;17.072;2023-12-14T04:45:09;22.50;;;10.60;;
77152;SDS011;66124;51.146;17.072;2023-12-14T04:47:39;30.50;;;12.90;;
77152;SDS011;66124;51.146;17.072;2023-12-14T04:58:55;30.30;;;13.70;;
77152;SDS011;66124;51.146;17.072;2023-12-14T05:04:51;27.40;;;12.50;;
77152;SDS011;66124;51.146;17.072;2023-12-14T05:07:21;35.00;;;14.70;;
77152;SDS011;66124;51.146;17.072;2023-12-14T05:10:57;29.40;;;13.80;;
77152;SDS011;66124;51.146;17.072;2023-12-14T05:13:27;27.90;;;13.30;;
77152;SDS011;66124;51.146;17.072;2023-12-14T05:17:43;33.40;;;15.60;;
77152;SDS011;66124;51.146;17.072;2023-12-14T05:20:14;29.00;;;14.60;;
77152;SDS011;66124;51.146;17.072;2023-12-14T05:22:43;29.20;;;12.70;;
77152;SDS011;66124;51.146;17.072;2023-12-14T05:25:13;27.00;;;12.10;;
77152;SDS011;66124;51.146;17.072;2023-12-14T05:27:42;28.30;;;13.10;;
77152;SDS011;66124;51.146;17.072;2023-12-14T05:30:12;27.10;;;12.60;;
77152;SDS011;66124;51.146;17.072;2023-12-14T05:32:42;32.50;;;14.10;;
77152;SDS011;66124;51.146;17.072;2023-12-14T05:42:19;33.80;;;15.00;;
77152;SDS011;66124;51.146;17.072;2023-12-14T05:44:46;32.10;;;14.20;;
77152;SDS011;66124;51.146;17.072;2023-12-14T05:47:14;31.40;;;14.50;;
77152;SDS011;66124;51.146;17.072;2023-12-14T05:49:41;30.70;;;13.20;;
77152;SDS011;66124;51.146;17.072;2023-12-14T05:53:46;30.20;;;15.80;;
77152;SDS011;66124;51.146;17.072;2023-12-14T05:58:18;28.50;;;12.70;;
77152;SDS011;66124;51.146;17.072;2023-12-14T06:00:48;39.90;;;12.70;;
77152;SDS011;66124;51.146;17.072;2023-12-14T06:03:17;28.60;;;11.80;;
77152;SDS011;66124;51.146;17.072;2023-12-14T06:05:47;24.00;;;11.10;;
77152;SDS011;66124;51.146;17.072;2023-12-14T06:08:16;25.10;;;10.90;;
77152;SDS011;66124;51.146;17.072;2023-12-14T06:10:47;24.10;;;10.80;;
77152;SDS011;66124;51.146;17.072;2023-12-14T06:13:17;27.70;;;11.10;;
77152;SDS011;66124;51.146;17.072;2023-12-14T06:18:02;27.10;;;12.20;;
77152;SDS011;66124;51.146;17.072;2023-12-14T06:22:08;30.80;;;11.80;;
77152;SDS011;66124;51.146;17.072;2023-12-14T06:38:04;38.20;;;16.10;;
77152;SDS011;66124;51.146;17.072;2023-12-14T06:40:33;33.10;;;12.70;;
77152;SDS011;66124;51.146;17.072;2023-12-14T06:46:59;26.40;;;11.00;;
77152;SDS011;66124;51.146;17.072;2023-12-14T06:49:29;22.00;;;10.20;;
77152;SDS011;66124;51.146;17.072;2023-12-14T06:51:58;20.10;;;9.70;;
77152;SDS011;66124;51.146;17.072;2023-12-14T06:54:28;25.70;;;11.10;;
77152;SDS011;66124;51.146;17.072;2023-12-14T06:56:57;22.90;;;10.50;;
77152;SDS011;66124;51.146;17.072;2023-12-14T06:59:28;26.30;;;10.80;;
77152;SDS011;66124;51.146;17.072;2023-12-14T07:01:57;26.20;;;11.80;;
77152;SDS011;66124;51.146;17.072;2023-12-14T07:04:27;21.70;;;10.50;;
77152;SDS011;66124;51.146;17.072;2023-12-14T07:06:56;22.60;;;10.00;;
77152;SDS011;66124;51.146;17.072;2023-12-14T07:09:26;23.10;;;10.70;;
77152;SDS011;66124;51.146;17.072;2023-12-14T07:11:56;22.80;;;11.30;;
77152;SDS011;66124;51.146;17.072;2023-12-14T07:16:49;24.00;;;11.10;;
77152;SDS011;66124;51.146;17.072;2023-12-14T07:19:18;26.50;;;11.90;;
77152;SDS011;66124;51.146;17.072;2023-12-14T07:21:46;23.00;;;10.60;;
77152;SDS011;66124;51.146;17.072;2023-12-14T07:25:27;23.00;;;11.20;;
77152;SDS011;66124;51.146;17.072;2023-12-14T07:28:58;23.50;;;11.40;;
77152;SDS011;66124;51.146;17.072;2023-12-14T07:31:28;22.90;;;11.10;;
77152;SDS011;66124;51.146;17.072;2023-12-14T07:33:57;27.80;;;11.60;;
77152;SDS011;66124;51.146;17.072;2023-12-14T07:36:27;26.30;;;12.50;;
77152;SDS011;66124;51.146;17.072;2023-12-14T07:38:57;23.30;;;11.20;;
77152;SDS011;66124;51.146;17.072;2023-12-14T07:41:27;28.00;;;12.30;;
77152;SDS011;66124;51.146;17.072;2023-12-14T07:46:11;24.90;;;11.60;;
77152;SDS011;66124;51.146;17.072;2023-12-14T07:48:41;29.80;;;12.20;;
77152;SDS011;66124;51.146;17.072;2023-12-14T07:51:10;29.00;;;11.80;;
77152;SDS011;66124;51.146;17.072;2023-12-14T07:53:40;28.60;;;13.60;;
77152;SDS011;66124;51.146;17.072;2023-12-14T07:56:10;27.70;;;14.00;;
77152;SDS011;66124;51.146;17.072;2023-12-14T07:58:40;29.60;;;12.20;;
77152;SDS011;66124;51.146;17.072;2023-12-14T08:01:09;27.80;;;12.60;;
77152;SDS011;66124;51.146;17.072;2023-12-14T08:03:39;27.90;;;12.20;;
77152;SDS011;66124;51.146;17.072;2023-12-14T08:06:08;25.50;;;10.50;;
77152;SDS011;66124;51.146;17.072;2023-12-14T08:08:38;29.10;;;12.90;;
77152;SDS011;66124;51.146;17.072;2023-12-14T08:11:07;25.10;;;11.20;;
77152;SDS011;66124;51.146;17.072;2023-12-14T08:13:37;23.70;;;10.50;;
77152;SDS011;66124;51.146;17.072;2023-12-14T08:16:07;26.10;;;11.40;;
77152;SDS011;66124;51.146;17.072;2023-12-14T08:18:37;21.00;;;9.50;;
77152;SDS011;66124;51.146;17.072;2023-12-14T08:21:07;21.30;;;9.70;;
77152;SDS011;66124;51.146;17.072;2023-12-14T08:26:17;26.00;;;11.30;;
77152;SDS011;66124;51.146;17.072;2023-12-14T08:28:47;24.70;;;11.40;;
77152;SDS011;66124;51.146;17.072;2023-12-14T08:31:16;24.00;;;11.40;;
77152;SDS011;66124;51.146;17.072;2023-12-14T08:36:27;17.00;;;9.00;;
77152;SDS011;66124;51.146;17.072;2023-12-14T08:38:57;21.50;;;9.80;;
77152;SDS011;66124;51.146;17.072;2023-12-14T08:41:26;20.80;;;10.30;;
77152;SDS011;66124;51.146;17.072;2023-12-14T08:43:56;22.90;;;11.00;;
77152;SDS011;66124;51.146;17.072;2023-12-14T08:46:25;19.90;;;8.70;;
77152;SDS011;66124;51.146;17.072;2023-12-14T08:48:55;20.30;;;10.10;;
77152;SDS011;66124;51.146;17.072;2023-12-14T08:51:25;20.00;;;8.90;;
77152;SDS011;66124;51.146;17.072;2023-12-14T08:53:55;24.40;;;10.40;;
77152;SDS011;66124;51.146;17.072;2023-12-14T08:56:24;20.20;;;9.80;;
77152;SDS011;66124;51.146;17.072;2023-12-14T08:58:53;25.60;;;11.60;;
77152;SDS011;66124;51.146;17.072;2023-12-14T09:01:23;25.30;;;11.90;;
77152;SDS011;66124;51.146;17.072;2023-12-14T09:03:53;18.80;;;8.90;;
77152;SDS011;66124;51.146;17.072;2023-12-14T09:06:22;18.10;;;8.00;;
77152;SDS011;66124;51.146;17.072;2023-12-14T09:25:58;23.80;;;10.90;;
77152;SDS011;66124;51.146;17.072;2023-12-14T09:28:28;20.50;;;11.10;;
77152;SDS011;66124;51.146;17.072;2023-12-14T09:30:57;22.70;;;10.40;;
77152;SDS011;66124;51.146;17.072;2023-12-14T09:33:27;15.90;;;8.40;;
77152;SDS011;66124;51.146;17.072;2023-12-14T09:35:57;21.70;;;10.20;;
77152;SDS011;66124;51.146;17.072;2023-12-14T09:38:26;23.70;;;10.20;;
77152;SDS011;66124;51.146;17.072;2023-12-14T09:40:56;20.40;;;9.40;;
77152;SDS011;66124;51.146;17.072;2023-12-14T09:43:25;17.70;;;8.40;;
77152;SDS011;66124;51.146;17.072;2023-12-14T09:46:38;19.90;;;9.90;;
77152;SDS011;66124;51.146;17.072;2023-12-14T09:49:09;15.50;;;8.20;;
77152;SDS011;66124;51.146;17.072;2023-12-14T09:51:39;17.80;;;8.90;;
77152;SDS011;66124;51.146;17.072;2023-12-14T09:54:08;20.60;;;9.00;;
77152;SDS011;66124;51.146;17.072;2023-12-14T09:56:48;14.80;;;7.80;;
77152;SDS011;66124;51.146;17.072;2023-12-14T09:59:18;17.40;;;8.10;;
77152;SDS011;66124;51.146;17.072;2023-12-14T10:01:48;19.40;;;9.10;;
77152;SDS011;66124;51.146;17.072;2023-12-14T10:04:18;15.70;;;7.60;;
77152;SDS011;66124;51.146;17.072;2023-12-14T10:06:48;19.90;;;8.90;;
77152;SDS011;66124;51.146;17.072;2023-12-14T10:09:22;15.30;;;7.60;;
77152;SDS011;66124;51.146;17.072;2023-12-14T10:12:01;17.60;;;8.30;;
77152;SDS011;66124;51.146;17.072;2023-12-14T10:14:32;17.80;;;8.90;;
77152;SDS011;66124;51.146;17.072;2023-12-14T10:17:14;16.80;;;8.60;;
77152;SDS011;66124;51.146;17.072;2023-12-14T10:19:46;17.80;;;8.50;;
77152;SDS011;66124;51.146;17.072;2023-12-14T10:22:16;20.70;;;10.00;;
77152;SDS011;66124;51.146;17.072;2023-12-14T10:24:46;18.50;;;9.00;;
77152;SDS011;66124;51.146;17.072;2023-12-14T10:27:16;13.40;;;7.40;;
77152;SDS011;66124;51.146;17.072;2023-12-14T10:29:47;20.30;;;8.90;;
77152;SDS011;66124;51.146;17.072;2023-12-14T10:32:16;13.60;;;7.10;;
77152;SDS011;66124;51.146;17.072;2023-12-14T10:34:47;14.20;;;7.90;;
77152;SDS011;66124;51.146;17.072;2023-12-14T10:37:16;14.70;;;7.90;;
77152;SDS011;66124;51.146;17.072;2023-12-14T10:42:33;15.00;;;7.50;;
77152;SDS011;66124;51.146;17.072;2023-12-14T10:45:05;16.20;;;8.70;;
77152;SDS011;66124;51.146;17.072;2023-12-14T10:47:38;16.70;;;8.20;;
77152;SDS011;66124;51.146;17.072;2023-12-14T10:50:10;13.80;;;7.40;;
77152;SDS011;66124;51.146;17.072;2023-12-14T10:52:41;15.00;;;7.60;;
77152;SDS011;66124;51.146;17.072;2023-12-14T10:55:11;14.70;;;7.10;;
77152;SDS011;66124;51.146;17.072;2023-12-14T10:57:46;14.80;;;6.60;;
77152;SDS011;66124;51.146;17.072;2023-12-14T11:00:17;14.30;;;6.70;;
77152;SDS011;66124;51.146;17.072;2023-12-14T11:02:47;13.70;;;6.90;;
77152;SDS011;66124;51.146;17.072;2023-12-14T11:05:18;12.70;;;6.40;;
77152;SDS011;66124;51.146;17.072;2023-12-14T11:07:51;15.70;;;7.60;;
77152;SDS011;66124;51.146;17.072;2023-12-14T11:10:22;15.40;;;8.50;;
77152;SDS011;66124;51.146;17.072;2023-12-14T11:13:00;15.30;;;8.30;;
77152;SDS011;66124;51.146;17.072;2023-12-14T11:15:30;15.10;;;7.90;;
77152;SDS011;66124;51.146;17.072;2023-12-14T11:20:50;11.10;;;6.30;;
77152;SDS011;66124;51.146;17.072;2023-12-14T11:23:28;13.10;;;6.70;;
77152;SDS011;66124;51.146;17.072;2023-12-14T11:26:00;11.80;;;6.20;;
77152;SDS011;66124;51.146;17.072;2023-12-14T11:28:31;13.30;;;6.90;;
77152;SDS011;66124;51.146;17.072;2023-12-14T11:31:02;13.30;;;6.90;;
77152;SDS011;66124;51.146;17.072;2023-12-14T11:33:33;12.50;;;6.20;;
77152;SDS011;66124;51.146;17.072;2023-12-14T11:36:03;14.20;;;7.50;;
77152;SDS011;66124;51.146;17.072;2023-12-14T11:38:34;13.00;;;6.60;;
77152;SDS011;66124;51.146;17.072;2023-12-14T11:41:04;15.40;;;7.20;;
77152;SDS011;66124;51.146;17.072;2023-12-14T11:43:39;16.40;;;7.80;;
77152;SDS011;66124;51.146;17.072;2023-12-14T11:46:10;12.70;;;6.50;;
77152;SDS011;66124;51.146;17.072;2023-12-14T11:48:40;15.20;;;7.40;;
77152;SDS011;66124;51.146;17.072;2023-12-14T11:51:11;11.90;;;6.10;;
77152;SDS011;66124;51.146;17.072;2023-12-14T12:04:36;14.50;;;7.40;;
77152;SDS011;66124;51.146;17.072;2023-12-14T12:07:17;13.40;;;6.90;;
77152;SDS011;66124;51.146;17.072;2023-12-14T12:09:47;15.00;;;7.50;;
77152;SDS011;66124;51.146;17.072;2023-12-14T12:12:16;14.80;;;7.90;;
77152;SDS011;66124;51.146;17.072;2023-12-14T12:14:46;13.00;;;6.80;;
77152;SDS011;66124;51.146;17.072;2023-12-14T12:17:15;11.90;;;6.70;;
77152;SDS011;66124;51.146;17.072;2023-12-14T12:19:45;12.40;;;7.50;;
77152;SDS011;66124;51.146;17.072;2023-12-14T12:22:14;14.10;;;8.00;;
77152;SDS011;66124;51.146;17.072;2023-12-14T12:24:44;18.30;;;8.20;;
77152;SDS011;66124;51.146;17.072;2023-12-14T12:27:14;13.50;;;7.00;;
77152;SDS011;66124;51.146;17.072;2023-12-14T12:29:43;14.20;;;7.40;;
77152;SDS011;66124;51.146;17.072;2023-12-14T12:32:12;16.20;;;8.00;;
77152;SDS011;66124;51.146;17.072;2023-12-14T12:34:42;14.50;;;7.00;;
77152;SDS011;66124;51.146;17.072;2023-12-14T12:38:09;15.00;;;7.70;;
77152;SDS011;66124;51.146;17.072;2023-12-14T12:40:38;19.60;;;9.20;;
77152;SDS011;66124;51.146;17.072;2023-12-14T12:43:08;14.00;;;7.80;;
77152;SDS011;66124;51.146;17.072;2023-12-14T12:45:38;16.90;;;8.30;;
77152;SDS011;66124;51.146;17.072;2023-12-14T12:48:07;16.50;;;8.50;;
77152;SDS011;66124;51.146;17.072;2023-12-14T12:50:37;15.20;;;8.70;;
77152;SDS011;66124;51.146;17.072;2023-12-14T12:53:07;17.60;;;9.10;;
77152;SDS011;66124;51.146;17.072;2023-12-14T12:55:36;16.90;;;9.10;;
77152;SDS011;66124;51.146;17.072;2023-12-14T12:58:05;18.00;;;10.20;;
77152;SDS011;66124;51.146;17.072;2023-12-14T13:00:35;16.60;;;8.40;;
77152;SDS011;66124;51.146;17.072;2023-12-14T13:03:04;14.10;;;7.50;;
77152;SDS011;66124;51.146;17.072;2023-12-14T13:05:34;16.10;;;8.30;;
77152;SDS011;66124;51.146;17.072;2023-12-14T13:08:03;15.70;;;9.20;;
77152;SDS011;66124;51.146;17.072;2023-12-14T13:10:33;15.80;;;7.30;;
77152;SDS011;66124;51.146;17.072;2023-12-14T13:13:03;15.10;;;7.30;;
77152;SDS011;66124;51.146;17.072;2023-12-14T13:15:33;12.10;;;6.80;;
77152;SDS011;66124;51.146;17.072;2023-12-14T13:20:33;15.60;;;7.50;;
77152;SDS011;66124;51.146;17.072;2023-12-14T13:23:02;14.80;;;7.50;;
77152;SDS011;66124;51.146;17.072;2023-12-14T13:25:32;12.90;;;7.50;;
77152;SDS011;66124;51.146;17.072;2023-12-14T13:28:01;15.80;;;7.50;;
77152;SDS011;66124;51.146;17.072;2023-12-14T13:30:31;11.50;;;6.70;;
77152;SDS011;66124;51.146;17.072;2023-12-14T13:33:00;13.50;;;7.10;;
77152;SDS011;66124;51.146;17.072;2023-12-14T13:35:30;14.50;;;7.10;;
77152;SDS011;66124;51.146;17.072;2023-12-14T13:37:59;12.70;;;6.40;;
77152;SDS011;66124;51.146;17.072;2023-12-14T13:40:29;15.90;;;7.50;;
77152;SDS011;66124;51.146;17.072;2023-12-14T13:42:58;11.10;;;5.90;;
77152;SDS011;66124;51.146;17.072;2023-12-14T13:45:28;12.00;;;6.20;;
77152;SDS011;66124;51.146;17.072;2023-12-14T14:04:33;16.40;;;7.90;;
77152;SDS011;66124;51.146;17.072;2023-12-14T14:07:03;15.80;;;7.80;;
77152;SDS011;66124;51.146;17.072;2023-12-14T14:09:32;18.10;;;8.80;;
77152;SDS011;66124;51.146;17.072;2023-12-14T14:12:02;17.30;;;9.40;;
77152;SDS011;66124;51.146;17.072;2023-12-14T14:14:31;18.40;;;7.70;;
77152;SDS011;66124;51.146;17.072;2023-12-14T14:17:01;16.40;;;7.70;;
77152;SDS011;66124;51.146;17.072;2023-12-14T14:19:31;15.90;;;7.30;;
77152;SDS011;66124;51.146;17.072;2023-12-14T14:22:01;16.40;;;7.90;;
77152;SDS011;66124;51.146;17.072;2023-12-14T14:24:30;18.10;;;8.40;;
77152;SDS011;66124;51.146;17.072;2023-12-14T14:27:00;15.20;;;7.50;;
77152;SDS011;66124;51.146;17.072;2023-12-14T14:29:29;15.80;;;7.40;;
77152;SDS011;66124;51.146;17.072;2023-12-14T14:31:59;11.60;;;6.00;;
77152;SDS011;66124;51.146;17.072;2023-12-14T14:34:28;14.40;;;6.90;;
77152;SDS011;66124;51.146;17.072;2023-12-14T14:36:58;16.50;;;7.80;;
77152;SDS011;66124;51.146;17.072;2023-12-14T14:39:28;15.40;;;7.50;;
77152;SDS011;66124;51.146;17.072;2023-12-14T14:41:57;14.60;;;6.60;;
77152;SDS011;66124;51.146;17.072;2023-12-14T14:44:26;13.90;;;5.80;;
77152;SDS011;66124;51.146;17.072;2023-12-14T14:46:56;15.30;;;6.80;;
77152;SDS011;66124;51.146;17.072;2023-12-14T14:49:25;12.40;;;5.70;;
77152;SDS011;66124;51.146;17.072;2023-12-14T14:51:55;12.40;;;6.70;;
77152;SDS011;66124;51.146;17.072;2023-12-14T14:54:25;14.30;;;7.30;;
77152;SDS011;66124;51.146;17.072;2023-12-14T14:56:54;15.00;;;6.20;;
77152;SDS011;66124;51.146;17.072;2023-12-14T14:59:23;17.20;;;6.60;;
77152;SDS011;66124;51.146;17.072;2023-12-14T15:01:53;12.80;;;6.70;;
77152;SDS011;66124;51.146;17.072;2023-12-14T15:16:25;14.60;;;7.60;;
77152;SDS011;66124;51.146;17.072;2023-12-14T15:18:55;16.30;;;8.20;;
77152;SDS011;66124;51.146;17.072;2023-12-14T15:21:25;12.40;;;6.60;;
77152;SDS011;66124;51.146;17.072;2023-12-14T15:23:54;16.90;;;8.00;;
77152;SDS011;66124;51.146;17.072;2023-12-14T16:01:37;13.50;;;6.60;;
77152;SDS011;66124;51.146;17.072;2023-12-14T16:04:06;11.40;;;6.20;;
77152;SDS011;66124;51.146;17.072;2023-12-14T16:43:36;17.60;;;8.90;;
77152;SDS011;66124;51.146;17.072;2023-12-14T16:54:39;20.90;;;10.00;;
77152;SDS011;66124;51.146;17.072;2023-12-14T16:57:08;19.90;;;9.80;;
77152;SDS011;66124;51.146;17.072;2023-12-14T16:59:38;18.30;;;9.20;;
77152;SDS011;66124;51.146;17.072;2023-12-14T17:02:07;23.60;;;11.60;;
77152;SDS011;66124;51.146;17.072;2023-12-14T17:07:10;24.30;;;11.30;;
77152;SDS011;66124;51.146;17.072;2023-12-14T17:11:47;24.50;;;12.20;;
77152;SDS011;66124;51.146;17.072;2023-12-14T17:17:27;26.80;;;13.10;;
77152;SDS011;66124;51.146;17.072;2023-12-14T17:19:56;24.60;;;11.30;;
77152;SDS011;66124;51.146;17.072;2023-12-14T17:22:26;21.60;;;11.20;;
77152;SDS011;66124;51.146;17.072;2023-12-14T17:24:55;26.70;;;12.50;;
77152;SDS011;66124;51.146;17.072;2023-12-14T17:27:25;24.60;;;11.80;;
77152;SDS011;66124;51.146;17.072;2023-12-14T17:31:31;25.50;;;12.50;;
77152;SDS011;66124;51.146;17.072;2023-12-14T17:34:00;22.40;;;10.50;;
77152;SDS011;66124;51.146;17.072;2023-12-14T17:36:29;22.80;;;10.40;;
77152;SDS011;66124;51.146;17.072;2023-12-14T17:40:52;23.20;;;11.10;;
77152;SDS011;66124;51.146;17.072;2023-12-14T17:43:19;23.20;;;10.50;;
77152;SDS011;66124;51.146;17.072;2023-12-14T17:47:55;19.20;;;9.90;;
77152;SDS011;66124;51.146;17.072;2023-12-14T18:00:11;18.30;;;9.40;;
77152;SDS011;66124;51.146;17.072;2023-12-14T18:24:54;19.20;;;10.30;;
77152;SDS011;66124;51.146;17.072;2023-12-14T19:17:09;19.20;;;9.40;;
77152;SDS011;66124;51.146;17.072;2023-12-14T19:19:38;15.80;;;8.30;;
77152;SDS011;66124;51.146;17.072;2023-12-14T19:43:58;15.40;;;8.10;;
77152;SDS011;66124;51.146;17.072;2023-12-14T19:46:28;14.50;;;7.80;;
77152;SDS011;66124;51.146;17.072;2023-12-14T19:48:57;21.50;;;11.00;;
77152;SDS011;66124;51.146;17.072;2023-12-14T20:18:30;16.10;;;7.90;;
77152;SDS011;66124;51.146;17.072;2023-12-14T20:21:00;12.40;;;7.30;;
77152;SDS011;66124;51.146;17.072;2023-12-14T20:24:59;16.20;;;8.00;;
77152;SDS011;66124;51.146;17.072;2023-12-14T20:27:28;12.00;;;7.10;;
77152;SDS011;66124;51.146;17.072;2023-12-14T20:37:44;12.80;;;7.10;;
77152;SDS011;66124;51.146;17.072;2023-12-14T20:44:24;14.80;;;7.40;;
77152;SDS011;66124;51.146;17.072;2023-12-14T20:48:39;14.50;;;6.90;;
77152;SDS011;66124;51.146;17.072;2023-12-14T20:51:09;13.70;;;6.70;;
77152;SDS011;66124;51.146;17.072;2023-12-14T21:03:59;13.90;;;8.20;;
77152;SDS011;66124;51.146;17.072;2023-12-14T21:06:28;16.70;;;7.30;;
77152;SDS011;66124;51.146;17.072;2023-12-14T21:08:57;15.70;;;6.90;;
77152;SDS011;66124;51.146;17.072;2023-12-14T21:11:27;15.70;;;7.30;;
77152;SDS011;66124;51.146;17.072;2023-12-14T21:13:56;16.50;;;7.60;;
77152;SDS011;66124;51.146;17.072;2023-12-14T21:19:05;16.50;;;7.50;;
77152;SDS011;66124;51.146;17.072;2023-12-14T21:36:58;18.00;;;8.90;;
77152;SDS011;66124;51.146;17.072;2023-12-14T21:56:58;32.20;;;16.70;;
77152;SDS011;66124;51.146;17.072;2023-12-14T22:59:30;18.50;;;9.20;;
77152;SDS011;66124;51.146;17.072;2023-12-14T23:02:00;18.00;;;8.30;;
77152;SDS011;66124;51.146;17.072;2023-12-14T23:04:30;18.70;;;8.80;;
77152;SDS011;66124;51.146;17.072;2023-12-14T23:07:00;16.50;;;8.70;;
77152;SDS011;66124;51.146;17.072;2023-12-14T23:09:29;15.50;;;8.70;;
77152;SDS011;66124;51.146;17.072;2023-12-14T23:11:59;15.20;;;7.60;;
77152;SDS011;66124;51.146;17.072;2023-12-14T23:14:28;14.00;;;7.00;;
77152;SDS011;66124;51.146;17.072;2023-12-14T23:16:58;15.70;;;8.10;;
77152;SDS011;66124;51.146;17.072;2023-12-14T23:19:28;13.40;;;7.60;;
77152;SDS011;66124;51.146;17.072;2023-12-14T23:21:57;14.40;;;8.20;;
77152;SDS011;66124;51.146;17.072;2023-12-14T23:24:27;14.30;;;7.00;;
77152;SDS011;66124;51.146;17.072;2023-12-14T23:26:57;15.00;;;7.40;;
77152;SDS011;66124;51.146;17.072;2023-12-14T23:29:27;17.00;;;8.40;;
77152;SDS011;66124;51.146;17.072;2023-12-14T23:31:56;17.80;;;8.10;;
77152;SDS011;66124;51.146;17.072;2023-12-14T23:34:26;17.20;;;8.70;;
77152;SDS011;66124;51.146;17.072;2023-12-14T23:36:56;18.30;;;9.00;;
77152;SDS011;66124;51.146;17.072;2023-12-14T23:39:26;17.10;;;8.50;;
77152;SDS011;66124;51.146;17.072;2023-12-14T23:41:56;15.70;;;8.30;;
77152;SDS011;66124;51.146;17.072;2023-12-14T23:44:25;19.00;;;9.30;;
77152;SDS011;66124;51.146;17.072;2023-12-14T23:46:55;16.50;;;8.00;;
77152;SDS011;66124;51.146;17.072;2023-12-14T23:49:25;18.50;;;8.70;;
77152;SDS011;66124;51.146;17.072;2023-12-14T23:51:54;16.50;;;8.30;;
77152;SDS011;66124;51.146;17.072;2023-12-14T23:54:24;16.10;;;8.00;;
77152;SDS011;66124;51.146;17.072;2023-12-14T23:56:54;15.80;;;8.20;;
77152;SDS011;66124;51.146;17.072;2023-12-14T23:59:23;17.10;;;7.90;;
